EST,Max TemperatureF,Mean TemperatureF,Min TemperatureF,Max Dew PointF,MeanDew PointF,Min DewpointF,Max Humidity, Mean Humidity, Min Humidity, Max Sea Level PressureIn, Mean Sea Level PressureIn, Min Sea Level PressureIn, Max VisibilityMiles, Mean VisibilityMiles, Min VisibilityMiles, Max Wind SpeedMPH, Mean Wind SpeedMPH, Max Gust SpeedMPH,PrecipitationIn, CloudCover, Events, WindDirDegrees
2013-1-1,45,41,37,43,39,32,100,93,85,30.11,30.04,29.98,10,3,0,15,4,18,1.19,8,Rain,356
2013-1-2,44,40,36,39,33,30,92,81,70,30.19,30.11,30.01,10,8,2,15,6,18,0.03,8,Rain,7
2013-1-3,44,37,28,30,27,22,79,66,38,30.38,30.26,30.18,10,10,10,6,3,,0.00,5,,351
2013-1-4,43,33,23,26,23,20,92,68,43,30.45,30.40,30.37,10,9,5,8,1,14,0.00,1,,340
2013-1-5,47,35,22,35,25,21,88,63,38,30.43,30.35,30.27,10,10,5,9,4,12,0.08,3,Rain,359
2013-1-6,46,41,35,38,35,27,92,79,65,30.31,30.22,30.14,10,8,3,16,7,21,0.03,7,Rain,227
2013-1-7,50,39,27,28,26,23,84,63,42,30.43,30.35,30.31,10,10,7,13,4,16,0.00,0,,25
2013-1-8,55,41,26,33,29,23,92,68,44,30.42,30.34,30.30,10,8,5,8,2,13,0.00,1,,45
2013-1-9,49,43,37,45,40,31,86,78,70,30.46,30.41,30.34,10,9,7,16,3,20,T,7,Rain,40
2013-1-10,66,57,47,51,48,45,93,79,65,30.45,30.35,30.18,10,9,6,17,7,24,0.00,5,,28
2013-1-11,69,64,59,61,57,50,87,72,56,30.12,30.08,30.03,10,9,2,25,12,36,0.02,7,Rain,216
2013-1-12,75,67,59,62,60,53,93,79,64,30.13,30.05,29.98,10,10,10,22,8,26,T,6,Rain,232
2013-1-13,71,62,53,61,56,52,97,75,53,30.03,29.97,29.93,10,8,1,25,11,31,1.26,6,Rain,224
2013-1-14,61,49,37,59,41,35,100,93,86,30.29,30.17,30.03,10,3,2,17,8,23,1.93,8,Rain,358
2013-1-15,44,42,39,43,40,37,100,95,89,30.20,30.08,29.99,6,2,1,12,7,16,2.75,8,Rain,19
2013-1-16,48,45,41,45,41,39,100,93,86,30.09,29.99,29.92,10,5,1,15,5,17,0.57,8,Rain,291
2013-1-17,42,37,31,40,34,29,96,88,79,30.36,30.03,29.91,10,4,0,28,11,36,1.50,7,Fog-Rain-Snow,26
2013-1-18,43,34,25,31,28,24,92,75,57,30.55,30.48,30.39,10,7,3,9,4,12,T,0,,35
2013-1-19,52,39,26,36,28,24,96,68,39,30.44,30.36,30.19,10,3,0,16,5,21,0.00,2,Fog,232
2013-1-20,55,45,35,34,30,26,75,58,41,30.21,30.16,30.11,10,10,10,17,7,22,0.00,0,,232
2013-1-21,46,37,27,30,19,10,92,60,27,30.24,30.15,30.11,10,10,10,21,8,24,0.00,0,,256
2013-1-22,33,27,21,9,3,-5,52,36,20,30.38,30.31,30.23,10,10,10,14,6,16,0.00,3,,265
2013-1-23,45,34,23,26,13,-1,64,47,29,30.39,30.28,30.14,10,10,10,18,6,23,0.00,3,,236
2013-1-24,44,35,26,32,13,2,67,45,23,30.42,30.33,30.15,10,10,10,21,11,26,0.00,2,,356
2013-1-25,35,31,26,48,24,5,100,69,38,30.36,30.20,30.09,10,5,0,10,3,45,0.42,8,Fog-Rain,338
2013-1-26,49,40,30,34,30,26,92,67,42,30.38,30.27,30.19,10,6,1,9,4,13,0.00,4,,348
2013-1-27,46,36,26,38,29,24,92,73,53,30.45,30.38,30.34,10,8,4,9,4,10,T,5,Rain,22
2013-1-28,59,49,39,50,41,36,93,76,59,30.37,30.29,30.22,10,9,7,18,5,23,T,6,Rain,251
2013-1-29,67,56,44,53,48,43,93,76,58,30.22,30.10,29.85,10,5,0,7,1,9,0.00,5,Fog,291
2013-1-30,69,56,42,59,51,34,93,77,61,29.81,29.62,29.51,10,5,0,37,14,48,2.89,8,Fog-Rain-Thunderstorm,220
2013-1-31,43,38,33,31,23,20,70,55,39,30.06,29.99,29.77,10,10,7,32,16,45,T,6,Rain-Snow,244